createdAt,value
2022-08-26T00:00:20.839Z,3.55
2022-08-26T00:02:49.202Z,3.53
2022-08-26T00:05:18.150Z,3.47
2022-08-26T00:07:46.707Z,3.15
2022-08-26T00:10:15.358Z,3.80
2022-08-26T00:12:45.318Z,3.72
2022-08-26T00:15:19.164Z,4.18
2022-08-26T00:17:49.829Z,3.33
2022-08-26T00:20:22.826Z,4.50
2022-08-26T00:22:51.549Z,3.30
2022-08-26T00:25:20.539Z,3.72
2022-08-26T00:27:50.670Z,4.15
2022-08-26T00:30:26.597Z,3.60
2022-08-26T00:32:56.069Z,3.50
2022-08-26T00:35:25.616Z,3.67
2022-08-26T00:37:57.418Z,3.65
2022-08-26T00:40:31.417Z,4.05
2022-08-26T00:43:02.351Z,3.63
2022-08-26T00:45:45.111Z,3.60
2022-08-26T00:48:17.034Z,3.75
2022-08-26T00:50:54.397Z,3.92
2022-08-26T00:53:26.299Z,3.55
2022-08-26T00:56:02.569Z,3.97
2022-08-26T00:58:35.092Z,3.63
2022-08-26T01:01:04.081Z,4.07
2022-08-26T01:03:35.026Z,3.83
2022-08-26T01:06:05.278Z,3.88
2022-08-26T01:08:42.060Z,3.95
2022-08-26T01:11:12.555Z,3.83
2022-08-26T01:13:43.336Z,3.58
2022-08-26T01:16:15.613Z,3.38
2022-08-26T01:18:46.943Z,4.22
2022-08-26T01:21:27.202Z,4.07
2022-08-26T01:23:58.913Z,4.18
2022-08-26T01:26:34.433Z,4.05
2022-08-26T01:29:07.929Z,3.67
2022-08-26T01:31:42.335Z,3.97
2022-08-26T01:34:18.832Z,4.03
2022-08-26T01:36:51.582Z,4.03
2022-08-26T01:39:21.901Z,3.90
2022-08-26T01:41:53.855Z,4.05
2022-08-26T01:44:26.833Z,3.90
2022-08-26T01:46:58.061Z,3.35
2022-08-26T01:49:27.882Z,3.95
2022-08-26T01:52:02.020Z,4.38
2022-08-26T01:54:34.264Z,4.18
2022-08-26T01:57:03.845Z,3.78
2022-08-26T01:59:32.758Z,3.78
2022-08-26T02:02:01.593Z,4.15
2022-08-26T02:04:34.839Z,3.80
2022-08-26T02:07:07.761Z,4.50
2022-08-26T02:09:41.357Z,3.70
2022-08-26T02:12:11.739Z,3.75
2022-08-26T02:14:46.666Z,4.13
2022-08-26T02:17:15.697Z,4.03
2022-08-26T02:19:51.388Z,3.90
2022-08-26T02:22:24.703Z,4.35
2022-08-26T02:24:58.565Z,4.57
2022-08-26T02:27:32.841Z,4.32
2022-08-26T02:30:11.093Z,4.20
2022-08-26T02:32:40.316Z,4.53
2022-08-26T02:35:11.174Z,4.45
2022-08-26T02:37:39.765Z,4.45
2022-08-26T02:40:15.887Z,4.75
2022-08-26T02:42:44.577Z,4.33
2022-08-26T02:45:13.468Z,4.03
2022-08-26T02:47:45.954Z,4.30
2022-08-26T02:50:15.737Z,3.92
2022-08-26T02:52:45.292Z,4.22
2022-08-26T02:55:15.716Z,4.38
2022-08-26T02:57:44.183Z,4.70
2022-08-26T03:00:16.345Z,3.85
2022-08-26T03:02:45.076Z,4.18
2022-08-26T03:05:14.244Z,4.53
2022-08-26T03:07:45.183Z,4.72
2022-08-26T03:10:16.366Z,4.88
2022-08-26T03:12:47.453Z,5.40
2022-08-26T03:15:19.400Z,5.28
2022-08-26T03:17:50.239Z,5.65
2022-08-26T03:20:19.516Z,4.47
2022-08-26T03:22:49.773Z,5.18
2022-08-26T03:25:22.449Z,5.15
2022-08-26T03:27:52.365Z,4.97
2022-08-26T03:30:38.725Z,5.10
2022-08-26T03:33:15.020Z,4.75
2022-08-26T03:35:45.697Z,4.57
2022-08-26T03:38:14.482Z,4.47
2022-08-26T03:40:44.830Z,4.22
2022-08-26T03:43:15.939Z,4.88
2022-08-26T03:45:44.772Z,4.00
2022-08-26T03:48:14.447Z,4.47
2022-08-26T03:50:43.845Z,4.90
2022-08-26T03:53:12.861Z,4.15
2022-08-26T03:55:43.641Z,4.32
2022-08-26T03:58:12.518Z,4.85
2022-08-26T04:00:40.899Z,4.85
2022-08-26T04:03:14.740Z,5.22
2022-08-26T04:05:46.789Z,5.40
2022-08-26T04:08:15.383Z,4.32
2022-08-26T04:10:45.172Z,3.97
2022-08-26T04:13:13.776Z,4.25
2022-08-26T04:15:42.220Z,4.90
2022-08-26T04:18:10.677Z,4.93
2022-08-26T04:20:39.352Z,4.47
2022-08-26T04:23:08.075Z,5.45
2022-08-26T04:25:36.549Z,5.22
2022-08-26T04:28:10.593Z,5.07
2022-08-26T04:30:39.565Z,4.45
2022-08-26T04:33:13.183Z,4.70
2022-08-26T04:35:44.014Z,4.80
2022-08-26T04:38:12.863Z,5.18
2022-08-26T04:40:46.755Z,4.40
2022-08-26T04:43:16.817Z,4.72
2022-08-26T04:45:45.260Z,4.63
2022-08-26T04:48:16.828Z,5.00
2022-08-26T04:50:45.407Z,4.70
2022-08-26T04:53:18.112Z,5.28
2022-08-26T04:55:46.667Z,4.68
2022-08-26T04:58:20.821Z,4.53
2022-08-26T05:00:51.531Z,5.18
2022-08-26T05:03:20.885Z,4.78
2022-08-26T05:05:50.893Z,4.38
2022-08-26T05:08:22.532Z,4.13
2022-08-26T05:10:55.899Z,4.60
2022-08-26T05:13:28.590Z,4.20
2022-08-26T05:16:00.557Z,4.35
2022-08-26T05:18:29.984Z,4.55
2022-08-26T05:20:58.420Z,4.13
2022-08-26T05:23:27.148Z,4.40
2022-08-26T05:25:59.245Z,4.38
2022-08-26T05:28:31.203Z,5.13
2022-08-26T05:31:00.553Z,3.97
2022-08-26T05:33:29.424Z,4.35
2022-08-26T05:35:57.924Z,5.18
2022-08-26T05:38:30.316Z,4.45
2022-08-26T05:40:59.000Z,4.50
2022-08-26T05:43:29.716Z,5.60
2022-08-26T05:46:07.751Z,5.68
2022-08-26T05:48:36.373Z,5.53
2022-08-26T05:51:08.781Z,5.07
2022-08-26T05:53:38.649Z,4.55
2022-08-26T05:56:09.327Z,4.43
2022-08-26T05:58:42.426Z,3.67
2022-08-26T06:01:17.429Z,4.85
2022-08-26T06:03:50.053Z,4.45
2022-08-26T06:06:27.212Z,4.43
2022-08-26T06:08:59.530Z,4.90
2022-08-26T06:11:30.562Z,4.85
2022-08-26T06:14:04.356Z,4.45
2022-08-26T06:16:36.301Z,5.05
2022-08-26T06:19:10.747Z,5.20
2022-08-26T06:21:41.543Z,5.55
2022-08-26T06:24:30.491Z,5.05
2022-08-26T06:27:02.160Z,4.60
2022-08-26T06:29:36.140Z,4.85
2022-08-26T06:32:06.778Z,4.15
2022-08-26T06:34:35.389Z,3.90
2022-08-26T06:37:06.466Z,4.25
2022-08-26T06:39:35.317Z,5.15
2022-08-26T06:42:08.876Z,4.28
2022-08-26T06:44:41.662Z,4.85
2022-08-26T06:47:13.285Z,4.63
2022-08-26T06:49:41.672Z,4.78
2022-08-26T06:52:10.084Z,3.75
2022-08-26T06:54:43.054Z,4.43
2022-08-26T06:57:13.118Z,4.22
2022-08-26T06:59:44.138Z,4.00
2022-08-26T07:02:13.433Z,5.07
2022-08-26T07:04:42.318Z,4.05
2022-08-26T07:07:14.759Z,4.05
2022-08-26T07:09:43.467Z,4.07
2022-08-26T07:12:11.842Z,3.88
2022-08-26T07:14:40.356Z,4.40
2022-08-26T07:17:14.335Z,3.55
2022-08-26T07:19:43.241Z,4.00
2022-08-26T07:22:11.601Z,3.90
2022-08-26T07:24:42.356Z,3.70
2022-08-26T07:27:15.110Z,4.07
2022-08-26T07:29:44.795Z,4.30
2022-08-26T07:32:22.945Z,4.55
2022-08-26T07:34:51.785Z,4.28
2022-08-26T07:37:20.413Z,3.58
2022-08-26T07:39:48.861Z,3.80
2022-08-26T07:42:19.669Z,4.03
2022-08-26T07:44:48.748Z,3.85
2022-08-26T07:47:24.760Z,4.15
2022-08-26T07:49:56.616Z,4.78
2022-08-26T07:52:27.549Z,4.35
2022-08-26T07:54:58.093Z,4.10
2022-08-26T07:57:27.155Z,4.13
2022-08-26T07:59:56.673Z,4.28
2022-08-26T08:02:28.088Z,4.60
2022-08-26T08:04:57.862Z,4.03
2022-08-26T08:07:44.286Z,4.30
2022-08-26T08:10:17.931Z,4.07
2022-08-26T08:12:48.064Z,4.03
2022-08-26T08:15:20.111Z,4.45
2022-08-26T08:17:51.560Z,4.25
2022-08-26T08:20:20.849Z,4.15
2022-08-26T08:22:49.965Z,4.57
2022-08-26T08:25:18.520Z,3.85
2022-08-26T08:27:48.614Z,4.45
2022-08-26T08:30:23.039Z,4.15
2022-08-26T08:32:53.524Z,4.03
2022-08-26T08:35:26.250Z,4.38
2022-08-26T08:37:56.577Z,4.32
2022-08-26T08:40:27.844Z,4.22
2022-08-26T08:43:04.826Z,4.25
2022-08-26T08:45:37.730Z,4.88
2022-08-26T08:48:15.231Z,4.75
2022-08-26T08:50:48.373Z,4.55
2022-08-26T08:53:22.656Z,4.77
2022-08-26T08:56:05.529Z,3.97
2022-08-26T08:58:51.470Z,4.18
2022-08-26T09:01:31.716Z,4.20
2022-08-26T09:04:24.941Z,4.53
2022-08-26T09:06:59.072Z,4.45
2022-08-26T09:12:03.216Z,4.70
2022-08-26T09:14:32.949Z,4.63
2022-08-26T09:17:14.077Z,5.22
2022-08-26T09:19:50.476Z,5.28
2022-08-26T09:22:31.004Z,4.63
2022-08-26T09:24:59.684Z,4.38
2022-08-26T09:27:44.078Z,4.43
2022-08-26T09:30:16.566Z,5.22
2022-08-26T09:33:01.177Z,4.97
2022-08-26T09:35:34.585Z,4.47
2022-08-26T09:38:03.732Z,4.90
2022-08-26T09:40:35.244Z,4.53
2022-08-26T09:43:22.867Z,4.40
2022-08-26T09:45:59.284Z,4.30
2022-08-26T09:48:35.534Z,4.57
2022-08-26T09:51:24.073Z,4.03
2022-08-26T09:53:56.140Z,4.55
2022-08-26T09:56:29.946Z,4.63
2022-08-26T09:58:59.665Z,3.80
2022-08-26T10:01:34.889Z,4.72
2022-08-26T10:04:11.322Z,4.20
2022-08-26T10:06:56.928Z,4.25
2022-08-26T10:09:28.116Z,4.57
2022-08-26T10:12:03.457Z,4.78
2022-08-26T10:14:39.772Z,4.28
2022-08-26T10:17:15.850Z,4.32
2022-08-26T10:19:56.744Z,3.65
2022-08-26T10:22:34.154Z,3.58
2022-08-26T10:25:09.233Z,3.50
2022-08-26T10:27:49.744Z,3.20
2022-08-26T10:30:28.638Z,2.90
2022-08-26T10:33:03.462Z,2.97
2022-08-26T10:35:34.797Z,2.60
2022-08-26T10:38:13.131Z,3.53
2022-08-26T10:40:56.156Z,3.40
2022-08-26T10:43:31.081Z,3.13
2022-08-26T10:46:04.278Z,3.75
2022-08-26T10:48:43.491Z,3.33
2022-08-26T10:51:13.640Z,3.45
2022-08-26T10:53:55.938Z,3.70
2022-08-26T10:56:44.597Z,3.35
2022-08-26T10:59:26.513Z,3.88
2022-08-26T11:02:06.343Z,3.60
2022-08-26T11:04:51.704Z,4.03
2022-08-26T11:07:42.885Z,3.72
2022-08-26T11:11:01.093Z,3.40
2022-08-26T11:14:04.358Z,3.65
2022-08-26T11:16:43.574Z,3.50
2022-08-26T11:19:58.765Z,3.08
2022-08-26T11:22:31.061Z,3.17
2022-08-26T11:25:11.398Z,3.25
2022-08-26T11:28:07.585Z,3.35
2022-08-26T11:30:43.861Z,3.85
2022-08-26T11:33:32.724Z,3.65
2022-08-26T11:36:01.304Z,3.78
2022-08-26T11:38:45.167Z,4.07
2022-08-26T11:41:21.824Z,3.40
2022-08-26T11:43:52.258Z,3.78
2022-08-26T11:46:27.776Z,2.95
2022-08-26T11:49:05.214Z,3.40
2022-08-26T11:51:40.186Z,3.97
2022-08-26T11:54:16.274Z,4.25
2022-08-26T11:56:48.056Z,3.40
2022-08-26T11:59:25.184Z,4.20
2022-08-26T12:01:55.649Z,3.97
2022-08-26T12:04:31.236Z,3.85
2022-08-26T12:07:03.038Z,3.97
2022-08-26T12:09:37.827Z,3.83
2022-08-26T12:12:17.060Z,3.75
2022-08-26T12:14:46.068Z,3.70
2022-08-26T12:17:18.781Z,4.03
2022-08-26T12:19:47.817Z,4.07
2022-08-26T12:22:23.112Z,3.70
2022-08-26T12:24:58.472Z,4.32
2022-08-26T12:27:29.228Z,3.83
2022-08-26T12:30:10.107Z,3.63
2022-08-26T12:32:57.472Z,3.47
2022-08-26T12:35:28.788Z,3.80
2022-08-26T12:37:58.708Z,3.95
2022-08-26T12:40:41.915Z,2.97
2022-08-26T12:43:13.525Z,3.40
2022-08-26T12:45:45.436Z,3.95
2022-08-26T12:48:24.638Z,3.83
2022-08-26T12:50:54.159Z,3.80
2022-08-26T12:53:24.887Z,3.70
2022-08-26T12:55:57.229Z,3.22
2022-08-26T12:58:30.078Z,3.30
2022-08-26T13:01:20.235Z,4.10
2022-08-26T13:03:49.802Z,3.17
2022-08-26T13:06:31.234Z,3.53
2022-08-26T13:09:02.105Z,3.65
2022-08-26T13:11:35.562Z,3.45
2022-08-26T13:14:09.380Z,3.15
2022-08-26T13:16:41.640Z,3.83
2022-08-26T13:19:13.080Z,3.90
2022-08-26T13:21:47.980Z,3.67
2022-08-26T13:24:20.965Z,3.50
2022-08-26T13:26:51.526Z,3.40
2022-08-26T13:29:20.721Z,3.65
2022-08-26T13:31:49.781Z,3.90
2022-08-26T13:34:21.533Z,3.45
2022-08-26T13:36:51.741Z,3.20
2022-08-26T13:39:21.229Z,3.20
2022-08-26T13:41:51.480Z,3.58
2022-08-26T13:44:20.326Z,3.25
2022-08-26T13:46:49.040Z,3.22
2022-08-26T13:49:17.556Z,3.40
2022-08-26T13:51:46.042Z,3.40
2022-08-26T13:54:14.406Z,3.42
2022-08-26T13:56:42.790Z,3.70
2022-08-26T13:59:12.629Z,3.30
2022-08-26T14:01:41.029Z,3.53
2022-08-26T14:04:09.581Z,3.35
2022-08-26T14:06:38.236Z,3.25
2022-08-26T14:09:06.823Z,3.92
2022-08-26T14:11:50.853Z,3.30
2022-08-26T14:14:25.109Z,2.83
2022-08-26T14:17:00.128Z,3.00
2022-08-26T14:19:31.063Z,2.72
2022-08-26T14:22:01.400Z,3.00
2022-08-26T14:24:30.156Z,5.72
2022-08-26T14:26:58.593Z,6.85
2022-08-26T14:29:28.670Z,6.30
2022-08-26T14:31:58.919Z,7.32
2022-08-26T14:34:27.721Z,7.10
2022-08-26T14:36:56.084Z,6.43
2022-08-26T14:39:24.524Z,6.03
2022-08-26T14:41:56.746Z,5.43
2022-08-26T14:44:31.346Z,6.75
2022-08-26T14:47:03.416Z,6.53
2022-08-26T14:49:32.358Z,7.40
2022-08-26T14:52:00.780Z,7.18
2022-08-26T14:54:29.361Z,6.65
2022-08-26T14:57:02.042Z,8.10
2022-08-26T14:59:36.145Z,8.65
2022-08-26T15:02:06.178Z,8.25
2022-08-26T15:04:34.985Z,7.13
2022-08-26T15:07:04.865Z,8.23
2022-08-26T15:09:36.828Z,7.53
2022-08-26T15:12:06.560Z,7.68
2022-08-26T15:14:36.349Z,9.38
2022-08-26T15:17:05.317Z,9.15
2022-08-26T15:19:33.966Z,9.25
2022-08-26T15:22:02.363Z,8.93
2022-08-26T15:24:30.732Z,9.65
2022-08-26T15:26:59.252Z,8.82
2022-08-26T15:29:27.836Z,8.85
2022-08-26T15:31:57.733Z,10.07
2022-08-26T15:34:26.854Z,9.27
2022-08-26T15:36:55.940Z,10.57
2022-08-26T15:39:24.757Z,12.35
2022-08-26T15:41:53.533Z,11.85
2022-08-26T15:44:21.985Z,11.25
2022-08-26T15:46:55.348Z,11.52
2022-08-26T15:49:28.510Z,12.82
2022-08-26T15:51:57.132Z,14.13
2022-08-26T15:54:25.917Z,16.80
2022-08-26T15:56:54.516Z,18.42
2022-08-26T15:59:23.448Z,18.92
2022-08-26T16:01:53.118Z,19.17
2022-08-26T16:04:21.957Z,18.70
2022-08-26T16:06:52.182Z,19.73
2022-08-26T16:09:24.322Z,18.48
2022-08-26T16:11:53.295Z,17.95
2022-08-26T16:14:22.480Z,17.85
2022-08-26T16:16:51.566Z,17.60
2022-08-26T16:19:20.067Z,18.00
2022-08-26T16:21:50.693Z,17.13
2022-08-26T16:24:24.860Z,15.18
2022-08-26T16:26:55.354Z,16.35
2022-08-26T16:29:24.492Z,15.90
2022-08-26T16:31:54.611Z,15.65
2022-08-26T16:34:23.317Z,15.20
2022-08-26T16:36:53.063Z,16.15
2022-08-26T16:39:22.787Z,15.75
2022-08-26T16:41:51.417Z,15.85
2022-08-26T16:44:19.832Z,15.07
2022-08-26T16:46:48.297Z,15.25
2022-08-26T16:49:16.991Z,15.93
2022-08-26T16:51:45.505Z,17.40
2022-08-26T16:54:14.553Z,16.48
2022-08-26T16:56:44.297Z,15.55
2022-08-26T16:59:12.925Z,16.35
2022-08-26T17:01:41.635Z,15.98
2022-08-26T17:04:10.125Z,16.80
2022-08-26T17:06:38.550Z,15.38
2022-08-26T17:09:07.240Z,15.23
2022-08-26T17:11:36.019Z,15.63
2022-08-26T17:14:06.590Z,15.40
2022-08-26T17:16:35.344Z,13.95
2022-08-26T17:19:05.537Z,14.30
2022-08-26T17:21:35.719Z,13.95
2022-08-26T17:24:05.899Z,13.45
2022-08-26T17:26:34.498Z,12.50
2022-08-26T17:29:03.174Z,11.68
2022-08-26T17:31:33.089Z,13.32
2022-08-26T17:34:01.504Z,12.65
2022-08-26T17:36:30.061Z,12.73
2022-08-26T17:38:59.533Z,12.45
2022-08-26T17:41:28.785Z,12.48
2022-08-26T17:43:57.486Z,10.65
2022-08-26T17:46:26.602Z,10.90
2022-08-26T17:48:56.849Z,10.70
2022-08-26T17:51:25.396Z,9.75
2022-08-26T17:53:54.002Z,10.65
2022-08-26T17:56:25.477Z,9.35
2022-08-26T17:58:54.845Z,10.07
2022-08-26T18:01:27.559Z,9.50
2022-08-26T18:04:00.441Z,8.93
2022-08-26T18:06:30.291Z,8.45
2022-08-26T18:08:59.429Z,7.70
2022-08-26T18:11:28.585Z,7.47
2022-08-26T18:13:56.948Z,6.95
2022-08-26T18:16:25.982Z,6.10
2022-08-26T18:18:55.921Z,6.22
2022-08-26T18:21:28.831Z,6.25
2022-08-26T18:23:57.806Z,5.53
2022-08-26T18:26:29.645Z,6.68
2022-08-26T18:28:58.443Z,7.80
2022-08-26T18:31:27.762Z,6.55
2022-08-26T18:34:00.197Z,7.15
2022-08-26T18:36:31.477Z,6.57
2022-08-26T18:39:00.570Z,6.50
2022-08-26T18:41:33.387Z,7.32
2022-08-26T18:44:01.960Z,6.68
2022-08-26T18:46:30.462Z,6.60
2022-08-26T18:49:00.337Z,7.03
2022-08-26T18:51:31.897Z,6.10
2022-08-26T18:54:02.487Z,5.85
2022-08-26T18:56:31.374Z,6.63
2022-08-26T18:59:00.097Z,5.95
2022-08-26T19:01:34.043Z,6.70
2022-08-26T19:04:06.501Z,5.93
2022-08-26T19:06:36.917Z,6.82
2022-08-26T19:09:08.908Z,7.10
2022-08-26T19:11:38.358Z,6.57
2022-08-26T19:14:14.207Z,6.22
2022-08-26T19:16:44.808Z,7.00
2022-08-26T19:19:15.376Z,6.88
2022-08-26T19:21:44.117Z,7.07
2022-08-26T19:24:17.359Z,7.18
2022-08-26T19:26:48.932Z,7.35
2022-08-26T19:29:20.517Z,6.22
2022-08-26T19:31:49.048Z,7.07
2022-08-26T19:34:20.686Z,7.93
2022-08-26T19:36:50.500Z,7.70
2022-08-26T19:39:18.845Z,7.68
2022-08-26T19:41:47.805Z,7.85
2022-08-26T19:44:51.235Z,7.78
2022-08-26T19:47:19.668Z,7.90
2022-08-26T19:49:53.376Z,8.35
2022-08-26T19:52:22.583Z,8.00
2022-08-26T19:54:58.501Z,7.43
2022-08-26T19:57:27.226Z,8.25
2022-08-26T19:59:55.678Z,7.88
2022-08-26T20:02:24.541Z,8.82
2022-08-26T20:04:54.424Z,9.10
2022-08-26T20:07:23.084Z,8.90
2022-08-26T20:09:51.558Z,9.35
2022-08-26T20:12:20.315Z,11.60
2022-08-26T20:14:48.725Z,9.52
2022-08-26T20:17:17.389Z,10.02
2022-08-26T20:20:03.469Z,10.23
2022-08-26T20:22:34.122Z,9.27
2022-08-26T20:25:02.828Z,9.60
2022-08-26T20:27:38.035Z,9.50
2022-08-26T20:30:10.262Z,9.93
2022-08-26T20:32:39.734Z,9.75
2022-08-26T20:35:12.028Z,9.90
2022-08-26T20:37:42.908Z,10.50
2022-08-26T20:40:13.891Z,9.10
2022-08-26T20:42:42.493Z,9.57
2022-08-26T20:45:11.905Z,9.02
2022-08-26T20:47:40.888Z,9.38
2022-08-26T20:50:10.120Z,9.18
2022-08-26T20:52:38.559Z,9.65
2022-08-26T20:55:09.921Z,8.77
2022-08-26T20:57:38.580Z,9.35
2022-08-26T21:00:08.465Z,9.40
2022-08-26T21:02:37.439Z,10.35
2022-08-26T21:05:06.991Z,9.65
2022-08-26T21:07:35.958Z,9.32
2022-08-26T21:10:04.954Z,9.77
2022-08-26T21:12:35.479Z,9.38
2022-08-26T21:15:04.620Z,9.00
2022-08-26T21:17:33.245Z,8.73
2022-08-26T21:20:02.125Z,9.20
2022-08-26T21:22:30.821Z,9.07
2022-08-26T21:24:59.180Z,9.60
2022-08-26T21:27:27.888Z,8.70
2022-08-26T21:29:58.116Z,8.57
2022-08-26T21:32:26.859Z,9.77
2022-08-26T21:34:57.204Z,9.32
2022-08-26T21:37:26.793Z,9.65
2022-08-26T21:39:58.903Z,8.32
2022-08-26T21:42:32.956Z,9.40
2022-08-26T21:45:04.188Z,8.43
2022-08-26T21:47:32.887Z,8.25
2022-08-26T21:50:01.553Z,8.02
2022-08-26T21:52:30.232Z,8.00
2022-08-26T21:54:59.820Z,9.00
2022-08-26T21:57:29.987Z,7.82
2022-08-26T21:59:58.976Z,7.63
2022-08-26T22:02:29.145Z,7.65
2022-08-26T22:04:57.532Z,8.10
2022-08-26T22:07:26.090Z,7.45
2022-08-26T22:09:54.741Z,7.78
2022-08-26T22:12:23.153Z,7.22
2022-08-26T22:14:51.604Z,6.85
2022-08-26T22:17:19.960Z,7.60
2022-08-26T22:19:50.087Z,7.63
2022-08-26T22:22:18.581Z,6.88
2022-08-26T22:24:46.969Z,7.30
2022-08-26T22:27:15.824Z,7.40
2022-08-26T22:29:46.490Z,6.60
2022-08-26T22:32:15.376Z,7.00
2022-08-26T22:34:44.046Z,6.95
2022-08-26T22:37:13.873Z,7.90
2022-08-26T22:39:42.572Z,7.93
2022-08-26T22:42:10.980Z,8.07
2022-08-26T22:44:41.171Z,6.95
2022-08-26T22:47:24.989Z,7.43
2022-08-26T22:49:53.437Z,7.43
2022-08-26T22:52:23.168Z,6.80
2022-08-26T22:54:52.005Z,6.85
2022-08-26T22:57:20.797Z,6.53
2022-08-26T22:59:49.557Z,6.35
2022-08-26T23:02:18.188Z,5.82
2022-08-26T23:04:46.652Z,6.30
2022-08-26T23:07:15.041Z,7.22
2022-08-26T23:09:45.098Z,5.82
2022-08-26T23:12:13.718Z,5.97
2022-08-26T23:14:43.886Z,5.60
2022-08-26T23:17:14.322Z,5.78
2022-08-26T23:19:42.986Z,6.75
2022-08-26T23:22:11.573Z,5.70
2022-08-26T23:24:40.869Z,5.97
2022-08-26T23:27:11.232Z,5.53
2022-08-26T23:29:39.820Z,5.25
2022-08-26T23:32:08.359Z,5.60
2022-08-26T23:34:54.289Z,5.28
2022-08-26T23:37:23.261Z,5.28
2022-08-26T23:39:54.417Z,5.07
2022-08-26T23:42:24.336Z,5.00
2022-08-26T23:44:56.616Z,5.15
2022-08-26T23:47:25.173Z,5.30
2022-08-26T23:49:53.928Z,4.65
2022-08-26T23:52:39.866Z,4.75
2022-08-26T23:55:10.640Z,5.80
2022-08-26T23:57:40.516Z,5.30
